createdAt,value
2018-02-23T00:00:30.994Z,40.63
2018-02-23T00:02:58.529Z,38.47
2018-02-23T00:05:26.043Z,40.80
2018-02-23T00:07:53.566Z,39.60
2018-02-23T00:10:21.129Z,36.60
2018-02-23T00:12:48.643Z,36.80
2018-02-23T00:15:16.146Z,40.00
2018-02-23T00:17:43.663Z,36.23
2018-02-23T00:20:11.538Z,34.37
2018-02-23T00:22:41.859Z,33.10
2018-02-23T00:25:09.354Z,29.77
2018-02-23T00:27:37.313Z,30.03
2018-02-23T00:30:04.833Z,31.17
2018-02-23T00:32:32.345Z,35.90
2018-02-23T00:34:59.881Z,32.37
2018-02-23T00:37:27.403Z,26.50
2018-02-23T00:39:54.928Z,31.20
2018-02-23T00:42:22.451Z,30.40
2018-02-23T00:44:49.954Z,29.87
2018-02-23T00:47:17.476Z,31.23
2018-02-23T00:49:45.016Z,26.67
2018-02-23T00:52:12.542Z,26.43
2018-02-23T00:54:40.832Z,25.53
2018-02-23T00:57:08.409Z,26.47
2018-02-23T00:59:36.027Z,24.63
2018-02-23T01:02:03.545Z,26.63
2018-02-23T01:04:31.107Z,26.33
2018-02-23T01:06:58.627Z,27.57
2018-02-23T01:09:26.148Z,24.60
2018-02-23T01:11:53.708Z,27.97
2018-02-23T01:14:21.213Z,26.77
2018-02-23T01:16:48.715Z,26.97
2018-02-23T01:19:16.229Z,26.33
2018-02-23T01:21:43.833Z,29.90
2018-02-23T01:24:12.197Z,24.53
2018-02-23T01:26:39.737Z,24.87
2018-02-23T01:29:07.260Z,26.60
2018-02-23T01:31:34.762Z,28.60
2018-02-23T01:34:02.294Z,28.57
2018-02-23T01:36:29.794Z,23.30
2018-02-23T01:38:57.299Z,28.30
2018-02-23T01:43:58.645Z,24.70
2018-02-23T01:46:26.931Z,25.40
2018-02-23T01:48:54.442Z,23.40
2018-02-23T01:51:21.943Z,24.10
2018-02-23T01:53:49.468Z,24.40
2018-02-23T01:56:17.791Z,24.03
2018-02-23T01:58:45.262Z,25.07
2018-02-23T02:01:12.795Z,21.00
2018-02-23T02:03:40.321Z,19.80
2018-02-23T02:06:07.841Z,23.33
2018-02-23T02:08:35.355Z,22.17
2018-02-23T02:11:02.869Z,23.37
2018-02-23T02:13:30.377Z,22.70
2018-02-23T02:15:57.942Z,22.07
2018-02-23T02:18:25.460Z,20.57
2018-02-23T02:20:52.992Z,22.83
2018-02-23T02:23:20.512Z,20.73
2018-02-23T02:25:48.013Z,23.10
2018-02-23T02:28:15.519Z,20.00
2018-02-23T02:30:43.032Z,23.67
2018-02-23T02:33:10.539Z,20.53
2018-02-23T02:35:38.822Z,19.33
2018-02-23T02:38:07.148Z,19.83
2018-02-23T02:40:34.679Z,22.50
2018-02-23T02:43:02.195Z,20.27
2018-02-23T02:45:29.721Z,21.53
2018-02-23T02:47:57.228Z,21.27
2018-02-23T02:50:24.737Z,19.13
2018-02-23T02:52:52.268Z,18.87
2018-02-23T02:55:19.762Z,18.67
2018-02-23T02:57:48.023Z,20.37
2018-02-23T03:00:15.620Z,18.37
2018-02-23T03:02:43.131Z,17.77
2018-02-23T03:05:10.633Z,17.10
2018-02-23T03:07:38.161Z,20.33
2018-02-23T03:10:05.670Z,19.37
2018-02-23T03:12:33.948Z,19.00
2018-02-23T03:15:02.248Z,18.50
2018-02-23T03:17:30.555Z,17.27
2018-02-23T03:19:58.054Z,19.00
2018-02-23T03:22:25.583Z,19.73
2018-02-23T03:24:53.078Z,19.93
2018-02-23T03:27:21.351Z,19.83
2018-02-23T03:29:48.889Z,17.07
2018-02-23T03:32:16.394Z,17.63
2018-02-23T03:34:43.900Z,21.07
2018-02-23T03:37:11.427Z,16.97
2018-02-23T03:39:38.945Z,17.43
2018-02-23T03:42:06.466Z,15.07
2018-02-23T03:44:34.001Z,15.47
2018-02-23T03:47:01.502Z,17.27
2018-02-23T03:49:29.022Z,16.43
2018-02-23T03:51:56.538Z,16.80
2018-02-23T03:54:24.039Z,17.30
2018-02-23T03:56:52.304Z,14.50
2018-02-23T03:59:19.878Z,16.00
2018-02-23T04:01:47.384Z,15.57
2018-02-23T04:04:14.883Z,15.47
2018-02-23T04:06:42.415Z,14.90
2018-02-23T04:09:09.931Z,16.43
2018-02-23T04:11:37.446Z,13.43
2018-02-23T04:14:04.972Z,15.30
2018-02-23T04:16:32.475Z,15.80
2018-02-23T04:18:59.975Z,19.00
2018-02-23T04:21:28.270Z,16.27
2018-02-23T04:23:55.781Z,15.33
2018-02-23T04:26:23.294Z,15.80
2018-02-23T04:28:50.813Z,16.90
2018-02-23T04:31:18.332Z,15.83
2018-02-23T04:33:45.852Z,14.80
2018-02-23T04:36:14.139Z,13.77
2018-02-23T04:38:41.653Z,16.33
2018-02-23T04:41:09.160Z,17.00
2018-02-23T04:43:36.674Z,16.47
2018-02-23T04:46:04.180Z,15.73
2018-02-23T04:48:31.690Z,19.90
2018-02-23T04:50:59.217Z,16.27
2018-02-23T04:53:26.759Z,17.07
2018-02-23T04:55:54.342Z,15.23
2018-02-23T04:58:21.868Z,15.97
2018-02-23T05:00:49.387Z,17.60
2018-02-23T05:03:16.889Z,15.90
2018-02-23T05:05:44.419Z,17.23
2018-02-23T05:08:12.696Z,17.53
2018-02-23T05:10:40.962Z,17.53
2018-02-23T05:13:08.492Z,16.87
2018-02-23T05:15:35.993Z,17.13
2018-02-23T05:18:04.259Z,18.27
2018-02-23T05:20:31.787Z,15.57
2018-02-23T05:22:59.283Z,16.47
2018-02-23T05:25:27.550Z,16.00
2018-02-23T05:27:55.851Z,17.33
2018-02-23T05:30:23.365Z,18.30
2018-02-23T05:32:50.892Z,16.83
2018-02-23T05:35:18.424Z,18.23
2018-02-23T05:37:45.930Z,16.53
2018-02-23T05:40:13.424Z,15.67
2018-02-23T05:42:40.948Z,16.67
2018-02-23T05:45:08.463Z,17.03
2018-02-23T05:47:35.959Z,16.63
2018-02-23T05:50:03.474Z,17.63
2018-02-23T05:52:30.977Z,20.87
2018-02-23T05:54:58.483Z,18.07
2018-02-23T05:57:26.007Z,18.20
2018-02-23T05:59:53.528Z,17.20
2018-02-23T06:02:21.044Z,17.67
2018-02-23T06:04:48.568Z,18.13
2018-02-23T06:07:16.094Z,17.57
2018-02-23T06:09:43.587Z,18.03
2018-02-23T06:12:11.104Z,18.67
2018-02-23T06:14:38.620Z,18.53
2018-02-23T06:17:12.653Z,17.23
2018-02-23T06:19:45.893Z,18.47
2018-02-23T06:22:13.618Z,20.40
2018-02-23T06:24:41.161Z,17.13
2018-02-23T06:27:09.426Z,19.00
2018-02-23T06:29:37.977Z,21.40
2018-02-23T06:32:05.494Z,18.37
2018-02-23T06:34:33.027Z,19.07
2018-02-23T06:37:01.319Z,17.80
2018-02-23T06:39:28.837Z,20.93
2018-02-23T06:41:56.349Z,25.53
2018-02-23T06:44:24.013Z,19.60
2018-02-23T06:46:58.033Z,20.83
2018-02-23T06:49:25.557Z,20.03
2018-02-23T06:51:53.097Z,22.73
2018-02-23T06:54:20.601Z,21.90
2018-02-23T06:56:48.123Z,21.23
2018-02-23T06:59:16.395Z,19.17
2018-02-23T07:01:44.679Z,21.00
2018-02-23T07:04:13.241Z,17.73
2018-02-23T07:06:40.757Z,19.40
2018-02-23T07:09:08.321Z,20.10
2018-02-23T07:11:35.840Z,20.03
2018-02-23T07:14:04.154Z,21.83
2018-02-23T07:16:31.661Z,19.93
2018-02-23T07:18:59.182Z,23.13
2018-02-23T07:21:26.701Z,22.47
2018-02-23T07:23:54.231Z,23.13
2018-02-23T07:26:21.760Z,22.17
2018-02-23T07:28:49.329Z,23.07
2018-02-23T07:31:16.831Z,22.53
2018-02-23T07:33:44.370Z,20.47
2018-02-23T07:36:11.937Z,26.47
2018-02-23T07:38:39.422Z,21.67
2018-02-23T07:41:06.956Z,21.60
2018-02-23T07:43:34.869Z,22.57
2018-02-23T07:46:02.445Z,23.37
2018-02-23T07:48:30.181Z,23.97
2018-02-23T07:50:57.691Z,24.93
2018-02-23T07:53:25.982Z,24.53
2018-02-23T07:55:54.307Z,25.43
2018-02-23T07:58:21.911Z,27.20
2018-02-23T08:00:50.189Z,26.00
2018-02-23T08:03:18.502Z,26.60
2018-02-23T08:05:46.025Z,26.70
2018-02-23T08:08:14.423Z,27.33
2018-02-23T08:10:41.987Z,28.17
2018-02-23T08:13:09.528Z,28.27
2018-02-23T08:15:37.035Z,30.23
2018-02-23T08:18:05.083Z,33.17
2018-02-23T08:20:32.589Z,24.43
2018-02-23T08:23:00.197Z,27.33
2018-02-23T08:25:27.961Z,27.07
2018-02-23T08:27:55.629Z,29.77
2018-02-23T08:30:23.154Z,27.73
2018-02-23T08:32:51.472Z,27.33
2018-02-23T08:35:18.972Z,28.97
2018-02-23T08:37:46.482Z,27.00
2018-02-23T08:40:14.011Z,25.23
2018-02-23T08:42:41.506Z,23.93
2018-02-23T08:45:09.723Z,26.13
2018-02-23T08:47:37.271Z,24.80
2018-02-23T08:50:04.780Z,22.37
2018-02-23T08:52:32.286Z,24.93
2018-02-23T08:54:59.813Z,22.57
2018-02-23T08:57:27.353Z,22.97
2018-02-23T08:59:54.909Z,22.47
2018-02-23T09:02:22.435Z,21.17
2018-02-23T09:04:50.712Z,19.20
2018-02-23T09:07:18.228Z,15.47
2018-02-23T09:09:45.747Z,19.70
2018-02-23T09:12:13.254Z,20.63
2018-02-23T09:14:40.784Z,22.20
2018-02-23T09:17:08.303Z,17.80
2018-02-23T09:19:35.814Z,17.20
2018-02-23T09:22:03.339Z,17.90
2018-02-23T09:24:31.122Z,14.70
2018-02-23T09:26:58.610Z,17.07
2018-02-23T09:29:26.182Z,15.10
2018-02-23T09:31:54.082Z,13.97
2018-02-23T09:34:33.463Z,14.63
2018-02-23T09:37:01.268Z,11.90
2018-02-23T09:39:28.762Z,13.23
2018-02-23T09:41:56.281Z,12.63
2018-02-23T09:44:24.180Z,14.10
2018-02-23T09:46:51.679Z,10.67
2018-02-23T09:49:19.198Z,11.53
2018-02-23T09:51:47.017Z,17.90
2018-02-23T09:54:14.517Z,12.07
2018-02-23T09:56:42.027Z,12.67
2018-02-23T09:59:09.840Z,11.20
2018-02-23T10:01:37.367Z,10.20
2018-02-23T10:04:05.639Z,9.87
2018-02-23T10:06:33.643Z,9.27
2018-02-23T10:09:01.152Z,9.00
2018-02-23T10:11:28.648Z,9.80
2018-02-23T10:13:56.622Z,6.80
2018-02-23T10:16:24.123Z,7.00
2018-02-23T10:18:51.622Z,7.67
2018-02-23T10:21:20.209Z,8.17
2018-02-23T10:23:48.467Z,6.97
2018-02-23T10:26:16.734Z,7.00
2018-02-23T10:28:45.928Z,5.93
2018-02-23T10:31:13.424Z,5.97
2018-02-23T10:33:41.085Z,4.00
2018-02-23T10:36:08.615Z,4.53
2018-02-23T10:38:36.892Z,4.80
2018-02-23T10:41:04.403Z,4.33
2018-02-23T10:43:31.936Z,3.37
2018-02-23T10:45:59.496Z,6.10
2018-02-23T10:48:27.007Z,3.47
2018-02-23T10:50:54.592Z,6.07
2018-02-23T10:53:22.045Z,4.60
2018-02-23T10:55:50.321Z,4.87
2018-02-23T10:58:18.614Z,3.80
2018-02-23T11:00:46.116Z,5.40
2018-02-23T11:03:13.625Z,6.17
2018-02-23T11:05:41.176Z,5.77
2018-02-23T11:08:09.459Z,5.47
2018-02-23T11:10:37.719Z,5.27
2018-02-23T11:13:06.007Z,5.43
2018-02-23T11:15:33.565Z,4.60
2018-02-23T11:18:01.831Z,5.37
2018-02-23T11:20:30.136Z,5.00
2018-02-23T11:22:57.635Z,3.63
2018-02-23T11:25:25.139Z,3.67
2018-02-23T11:27:53.007Z,4.37
2018-02-23T11:30:21.268Z,6.27
2018-02-23T11:32:48.770Z,4.37
2018-02-23T11:35:16.325Z,5.40
2018-02-23T11:37:43.905Z,4.10
2018-02-23T11:40:11.445Z,4.20
2018-02-23T11:42:38.971Z,5.30
2018-02-23T11:45:07.265Z,5.90
2018-02-23T11:47:34.861Z,4.60
2018-02-23T11:50:02.395Z,6.13
2018-02-23T11:52:29.875Z,4.37
2018-02-23T11:54:57.371Z,5.00
2018-02-23T11:57:31.368Z,6.53
2018-02-23T11:59:58.879Z,6.13
2018-02-23T12:02:26.368Z,7.17
2018-02-23T12:04:53.896Z,5.63
2018-02-23T12:07:21.383Z,5.33
2018-02-23T12:09:48.884Z,5.30
2018-02-23T12:12:16.456Z,5.47
2018-02-23T12:14:44.209Z,4.73
2018-02-23T12:17:11.709Z,4.70
2018-02-23T12:19:39.227Z,9.80
2018-02-23T12:22:07.602Z,5.73
2018-02-23T12:24:35.133Z,6.50
2018-02-23T12:27:02.669Z,5.20
2018-02-23T12:29:30.168Z,7.27
2018-02-23T12:31:58.452Z,7.13
2018-02-23T12:34:26.727Z,5.67
2018-02-23T12:36:54.217Z,6.63
2018-02-23T12:39:21.785Z,6.83
2018-02-23T12:41:49.305Z,5.73
2018-02-23T12:44:17.750Z,6.30
2018-02-23T12:46:45.236Z,4.93
2018-02-23T12:49:12.809Z,7.80
2018-02-23T12:51:40.434Z,5.43
2018-02-23T12:54:07.939Z,6.13
2018-02-23T12:56:35.454Z,6.17
2018-02-23T12:59:03.028Z,5.97
2018-02-23T13:01:30.517Z,5.97
2018-02-23T13:03:58.032Z,6.47
2018-02-23T13:06:25.745Z,7.30
2018-02-23T13:08:53.446Z,7.00
2018-02-23T13:11:21.038Z,6.37
2018-02-23T13:13:54.250Z,6.23
2018-02-23T13:16:22.582Z,7.60
2018-02-23T13:18:50.086Z,7.83
2018-02-23T13:21:17.735Z,6.97
2018-02-23T13:23:45.302Z,11.53
2018-02-23T13:26:13.522Z,8.00
2018-02-23T13:28:44.995Z,8.43
2018-02-23T13:31:12.518Z,9.90
2018-02-23T13:33:40.014Z,6.80
2018-02-23T13:36:08.485Z,7.47
2018-02-23T13:38:36.117Z,6.80
2018-02-23T13:44:05.763Z,8.77
2018-02-23T13:46:33.265Z,8.77
2018-02-23T13:49:00.756Z,10.63
2018-02-23T13:51:28.280Z,11.17
2018-02-23T13:54:01.500Z,9.93
2018-02-23T13:56:29.055Z,10.37
2018-02-23T13:58:57.336Z,10.57
2018-02-23T14:01:24.859Z,12.97
2018-02-23T14:03:52.744Z,11.00
2018-02-23T14:06:25.818Z,11.43
2018-02-23T14:08:53.368Z,12.13
2018-02-23T14:11:21.041Z,11.70
2018-02-23T14:13:48.531Z,11.00
2018-02-23T14:16:16.057Z,13.07
2018-02-23T14:18:43.587Z,11.53
2018-02-23T14:21:11.853Z,11.17
2018-02-23T14:23:39.400Z,11.83
2018-02-23T14:26:06.902Z,11.50
2018-02-23T14:28:34.539Z,13.57
2018-02-23T14:31:02.838Z,11.07
2018-02-23T14:33:30.402Z,11.43
2018-02-23T14:35:57.923Z,11.23
2018-02-23T14:38:25.522Z,13.63
2018-02-23T14:40:53.283Z,11.20
2018-02-23T14:43:20.825Z,10.57
2018-02-23T14:45:48.316Z,11.63
2018-02-23T14:48:28.280Z,10.90
2018-02-23T14:51:07.768Z,11.53
2018-02-23T14:53:36.039Z,11.17
2018-02-23T14:56:04.453Z,11.90
2018-02-23T14:58:31.972Z,11.90
2018-02-23T15:00:59.501Z,11.73
2018-02-23T16:23:02.661Z,14.93
2018-02-23T16:25:30.180Z,18.27
2018-02-23T16:27:57.693Z,15.27
2018-02-23T16:30:26.060Z,15.43
2018-02-23T16:32:53.588Z,11.67
2018-02-23T16:35:21.856Z,12.40
2018-02-23T16:37:49.744Z,15.87
2018-02-23T16:40:17.235Z,15.60
2018-02-23T16:42:44.745Z,13.63
2018-02-23T16:45:13.046Z,15.17
2018-02-23T16:47:40.544Z,16.83
2018-02-23T16:50:08.059Z,15.03
2018-02-23T16:52:35.586Z,14.67
2018-02-23T16:55:03.094Z,14.63
2018-02-23T16:57:30.777Z,12.70
2018-02-23T16:59:58.395Z,14.60
2018-02-23T17:02:25.917Z,15.77
2018-02-23T17:04:53.421Z,16.47
2018-02-23T17:07:20.942Z,18.67
2018-02-23T17:09:49.226Z,18.13
2018-02-23T17:12:17.499Z,15.17
2018-02-23T17:14:45.874Z,17.50
2018-02-23T17:17:14.277Z,16.23
2018-02-23T17:19:41.831Z,18.70
2018-02-23T17:22:10.144Z,18.03
2018-02-23T17:24:37.788Z,14.63
2018-02-23T17:27:05.696Z,16.83
2018-02-23T17:29:33.321Z,16.17
2018-02-23T17:32:00.884Z,16.83
2018-02-23T17:34:28.434Z,16.57
2018-02-23T17:36:56.084Z,18.00
2018-02-23T17:39:23.656Z,18.83
2018-02-23T17:41:51.202Z,17.47
2018-02-23T17:44:18.792Z,20.00
2018-02-23T17:46:47.188Z,19.97
2018-02-23T17:49:14.724Z,19.20
2018-02-23T17:51:42.247Z,18.43
2018-02-23T17:54:09.741Z,18.40
2018-02-23T17:56:37.243Z,20.40
2018-02-23T17:59:06.157Z,21.97
2018-02-23T18:01:33.705Z,20.93
2018-02-23T18:04:01.999Z,23.90
2018-02-23T18:06:29.551Z,20.13
2018-02-23T18:08:57.060Z,19.70
2018-02-23T18:11:25.396Z,22.23
2018-02-23T18:13:52.926Z,23.40
2018-02-23T18:16:20.504Z,23.87
2018-02-23T18:18:48.095Z,24.33
2018-02-23T18:21:15.710Z,22.60
2018-02-23T18:23:44.010Z,22.47
2018-02-23T18:26:11.545Z,22.07
2018-02-23T18:28:40.151Z,21.23
2018-02-23T18:31:07.703Z,22.70
2018-02-23T18:33:35.214Z,24.37
2018-02-23T18:36:02.782Z,23.17
2018-02-23T18:38:30.299Z,24.33
2018-02-23T18:40:57.812Z,21.93
2018-02-23T18:43:26.137Z,22.30
2018-02-23T18:45:53.685Z,23.77
2018-02-23T18:48:21.455Z,24.30
2018-02-23T18:50:48.984Z,23.23
2018-02-23T18:53:16.500Z,21.80
2018-02-23T18:55:44.085Z,21.97
2018-02-23T18:58:12.819Z,23.90
2018-02-23T19:00:40.368Z,21.93
2018-02-23T19:03:07.932Z,22.07
2018-02-23T19:05:35.877Z,22.23
2018-02-23T19:08:03.413Z,25.97
2018-02-23T19:10:31.737Z,25.20
2018-02-23T19:12:59.772Z,21.60
2018-02-23T19:15:28.144Z,21.57
2018-02-23T19:17:56.519Z,21.07
2018-02-23T19:20:24.891Z,21.60
2018-02-23T19:22:52.508Z,22.33
2018-02-23T19:25:20.110Z,21.67
2018-02-23T19:27:48.438Z,20.23
2018-02-23T19:30:15.994Z,19.20
2018-02-23T19:32:43.622Z,16.13
2018-02-23T19:35:11.236Z,22.07
2018-02-23T19:37:38.833Z,22.37
2018-02-23T19:40:06.587Z,20.07
2018-02-23T19:42:34.978Z,20.10
2018-02-23T19:45:02.576Z,17.63
2018-02-23T19:47:30.147Z,17.83
2018-02-23T19:49:57.787Z,16.63
2018-02-23T19:52:25.333Z,20.10
2018-02-23T19:54:52.998Z,16.87
2018-02-23T19:57:20.615Z,18.03
2018-02-23T19:59:48.216Z,19.03
2018-02-23T20:02:15.829Z,17.80
2018-02-23T20:04:43.470Z,17.97
2018-02-23T20:07:11.180Z,17.87
2018-02-23T20:09:39.528Z,18.37
2018-02-23T20:12:07.173Z,16.53
2018-02-23T20:14:34.765Z,16.47
2018-02-23T20:17:03.211Z,15.63
2018-02-23T20:19:30.866Z,17.27
2018-02-23T20:21:58.528Z,16.93
2018-02-23T20:24:26.097Z,17.73
2018-02-23T20:26:54.662Z,16.97
2018-02-23T20:29:22.285Z,17.00
2018-02-23T20:31:50.660Z,18.83
2018-02-23T20:34:18.263Z,17.93
2018-02-23T20:36:45.906Z,17.10
2018-02-23T20:39:13.506Z,19.70
2018-02-23T20:41:41.249Z,18.27
2018-02-23T20:44:09.833Z,19.07
2018-02-23T20:46:38.366Z,18.27
2018-02-23T20:49:06.812Z,20.17
2018-02-23T20:51:34.406Z,17.90
2018-02-23T20:54:02.931Z,19.43
2018-02-23T20:56:30.607Z,20.87
2018-02-23T20:58:58.175Z,21.70
2018-02-23T21:01:25.771Z,19.20
2018-02-23T21:03:53.392Z,19.10
2018-02-23T21:06:20.985Z,15.50
2018-02-23T21:08:49.294Z,19.63
2018-02-23T21:11:16.875Z,16.57
2018-02-23T21:13:44.515Z,19.67
2018-02-23T21:16:12.141Z,21.33
2018-02-23T21:18:39.774Z,16.80
2018-02-23T21:21:07.365Z,21.47
2018-02-23T21:23:36.013Z,17.30
2018-02-23T21:26:04.441Z,17.33
2018-02-23T21:28:32.023Z,17.73
2018-02-23T21:30:59.574Z,15.33
2018-02-23T21:33:27.251Z,19.00
2018-02-23T21:35:54.834Z,17.37
2018-02-23T21:38:22.408Z,13.70
2018-02-23T21:40:50.071Z,14.70
2018-02-23T21:43:17.656Z,14.40
2018-02-23T21:45:45.214Z,14.50
2018-02-23T21:48:13.614Z,15.10
2018-02-23T21:50:41.182Z,16.37
2018-02-23T21:53:08.746Z,12.97
2018-02-23T21:55:36.864Z,14.97
2018-02-23T21:58:04.462Z,15.20
2018-02-23T22:00:32.743Z,16.37
2018-02-23T22:03:00.283Z,14.30
2018-02-23T22:05:28.589Z,14.27
2018-02-23T22:07:56.204Z,13.83
2018-02-23T22:10:23.728Z,19.13
2018-02-23T22:12:51.258Z,15.23
2018-02-23T22:15:18.821Z,15.00
2018-02-23T22:17:46.349Z,14.30
2018-02-23T22:20:14.673Z,14.33
2018-02-23T22:22:42.226Z,11.30
2018-02-23T22:25:09.785Z,13.53
2018-02-23T22:27:37.368Z,15.00
2018-02-23T22:30:04.908Z,14.63
2018-02-23T22:32:32.496Z,13.87
2018-02-23T22:35:00.052Z,15.17
2018-02-23T22:37:27.552Z,13.10
2018-02-23T22:39:55.952Z,12.40
2018-02-23T22:42:23.480Z,13.23
2018-02-23T22:44:51.015Z,11.87
2018-02-23T22:47:19.360Z,12.47
2018-02-23T22:49:46.864Z,13.03
2018-02-23T22:52:14.431Z,15.00
2018-02-23T22:54:42.707Z,12.50
2018-02-23T22:57:10.240Z,12.20
2018-02-23T22:59:37.804Z,13.20
2018-02-23T23:02:05.331Z,14.33
2018-02-23T23:04:32.942Z,14.03
2018-02-23T23:07:01.273Z,14.90
2018-02-23T23:09:28.821Z,14.33
2018-02-23T23:11:56.452Z,12.77
2018-02-23T23:14:23.971Z,15.10
2018-02-23T23:16:51.672Z,13.00
2018-02-23T23:19:19.244Z,11.07
2018-02-23T23:21:46.772Z,12.77
2018-02-23T23:24:14.365Z,12.63
2018-02-23T23:26:41.868Z,12.87
2018-02-23T23:29:09.392Z,13.43
2018-02-23T23:31:36.912Z,11.53
2018-02-23T23:34:05.205Z,12.80
2018-02-23T23:36:33.055Z,10.37
2018-02-23T23:39:01.366Z,11.37
2018-02-23T23:41:28.879Z,13.80
2018-02-23T23:43:56.576Z,13.43
2018-02-23T23:46:24.144Z,13.07
2018-02-23T23:48:51.738Z,13.20
2018-02-23T23:51:19.281Z,11.10
2018-02-23T23:53:46.861Z,10.90
2018-02-23T23:56:14.774Z,12.23
2018-02-23T23:58:42.323Z,11.23
